Time;durP1;ratioP1;P1;durP2;ratioP2;P2;SDS_P1;SDS_P2;PMS_P1;PMS_P2;Temp;Humidity;BMP_temperature;BMP_pressure;BME280_temperature;BME280_humidity;BME280_pressure;Samples;Min_cycle;Max_cycle;Signal;HPM_P1;HPM_P2
2023/09/26 00:01:17;;;;;;;0.10;0.10;;;15.90;50.50;;;;;;5074514;28;20229;-62
2023/09/26 00:03:49;;;;;;;0.10;0.10;;;15.90;50.50;;;;;;5074702;28;20550;-62
2023/09/26 00:06:23;;;;;;;0.10;0.10;;;15.90;51.10;;;;;;5074833;28;20301;-60
2023/09/26 00:08:54;;;;;;;0.03;0.03;;;16.00;50.50;;;;;;5074463;28;20202;-61
2023/09/26 00:11:27;;;;;;;0.10;0.10;;;16.00;50.50;;;;;;5075252;28;20769;-61
2023/09/26 00:13:58;;;;;;;0.10;0.10;;;16.00;50.50;;;;;;5075263;28;20621;-63
2023/09/26 00:16:28;;;;;;;0.10;0.10;;;16.00;50.50;;;;;;5074920;28;20198;-59
2023/09/26 00:18:59;;;;;;;0.00;0.00;;;16.00;50.50;;;;;;5074293;28;20199;-62
2023/09/26 00:21:29;;;;;;;0.10;0.10;;;16.10;50.60;;;;;;5074748;28;20219;-60
2023/09/26 00:24:00;;;;;;;0.10;0.10;;;16.10;50.60;;;;;;5073561;28;20202;-61
2023/09/26 00:29:14;;;;;;;0.05;0.05;;;16.10;50.70;;;;;;5071401;28;20685;-44
2023/09/26 00:31:45;;;;;;;0.10;0.10;;;16.20;50.80;;;;;;5073973;28;20223;-44
2023/09/26 00:34:17;;;;;;;0.00;0.00;;;16.20;50.70;;;;;;5074272;28;20222;-46
2023/09/26 00:36:48;;;;;;;0.10;0.10;;;16.20;50.70;;;;;;5074763;28;20190;-44
2023/09/26 00:39:19;;;;;;;0.00;0.00;;;16.30;50.80;;;;;;5074558;28;20195;-45
2023/09/26 00:41:51;;;;;;;0.10;0.10;;;16.30;50.80;;;;;;5074729;28;20607;-45
2023/09/26 00:44:22;;;;;;;0.03;0.03;;;16.30;50.80;;;;;;5074552;28;20194;-45
2023/09/26 00:46:53;;;;;;;0.10;0.10;;;16.40;50.80;;;;;;5074507;28;20634;-45
2023/09/26 00:49:25;;;;;;;0.10;0.10;;;16.30;50.70;;;;;;5074309;28;20195;-45
2023/09/26 00:51:56;;;;;;;0.05;0.05;;;16.40;50.80;;;;;;5074242;28;20218;-45
2023/09/26 00:54:27;;;;;;;0.10;0.10;;;16.40;50.70;;;;;;5074339;28;20701;-47
2023/09/26 00:57:00;;;;;;;0.10;0.10;;;16.40;50.80;;;;;;5073776;28;20201;-45
2023/09/26 00:59:31;;;;;;;0.10;0.10;;;16.50;50.80;;;;;;5074353;28;20209;-45
2023/09/26 01:02:02;;;;;;;0.10;0.10;;;16.50;50.80;;;;;;5074154;28;20214;-45
2023/09/26 01:04:33;;;;;;;0.10;0.10;;;16.60;50.80;;;;;;5071400;28;20198;-44
2023/09/26 01:07:04;;;;;;;0.10;0.10;;;16.60;50.80;;;;;;5071890;28;20195;-46
2023/09/26 01:09:35;;;;;;;0.10;0.10;;;16.60;50.80;;;;;;5074245;28;20269;-46
2023/09/26 01:12:08;;;;;;;0.00;0.00;;;16.60;50.70;;;;;;5074038;28;20222;-45
2023/09/26 01:14:39;;;;;;;0.10;0.10;;;16.60;50.70;;;;;;5074011;28;20280;-46
2023/09/26 01:17:10;;;;;;;0.00;0.00;;;16.70;50.70;;;;;;5071275;28;20213;-45
2023/09/26 01:19:41;;;;;;;0.10;0.10;;;16.70;50.70;;;;;;5073808;28;20560;-45
2023/09/26 01:22:12;;;;;;;0.08;0.08;;;16.70;50.70;;;;;;5073157;28;20225;-45
2023/09/26 01:24:44;;;;;;;0.10;0.10;;;16.80;50.70;;;;;;5073276;28;20199;-45
2023/09/26 01:27:15;;;;;;;0.08;0.08;;;16.80;50.70;;;;;;5081723;22;20226;-62
2023/09/26 01:29:48;;;;;;;0.10;0.10;;;16.80;50.70;;;;;;5053403;28;20206;-62
2023/09/26 01:32:19;;;;;;;0.10;0.10;;;16.80;50.70;;;;;;5052832;28;20211;-62
2023/09/26 01:34:49;;;;;;;0.10;0.10;;;16.90;50.70;;;;;;5053091;28;20596;-60
2023/09/26 01:37:20;;;;;;;0.10;0.10;;;16.90;50.70;;;;;;5052885;28;20192;-60
2023/09/26 01:39:52;;;;;;;0.00;0.00;;;16.90;50.70;;;;;;5033764;28;20207;-64
2023/09/26 01:42:23;;;;;;;0.00;0.00;;;16.90;50.70;;;;;;5033027;28;20608;-60
2023/09/26 01:44:54;;;;;;;0.00;0.00;;;17.00;50.70;;;;;;5032785;28;20206;-62
2023/09/26 01:47:36;;;;;;;0.00;0.00;;;17.00;50.80;;;;;;5032596;28;20648;-63
2023/09/26 01:50:08;;;;;;;0.05;0.05;;;17.00;50.70;;;;;;5033213;28;20612;-63
2023/09/26 01:52:38;;;;;;;0.10;0.10;;;17.00;50.70;;;;;;5032964;28;20220;-64
2023/09/26 01:55:13;;;;;;;0.05;0.05;;;17.10;50.70;;;;;;5033002;28;20231;-62
2023/09/26 01:57:45;;;;;;;0.00;0.00;;;17.10;50.70;;;;;;5032776;28;20202;-63
2023/09/26 02:00:17;;;;;;;0.10;0.10;;;17.10;50.70;;;;;;5032877;28;20196;-61
2023/09/26 02:02:49;;;;;;;0.00;0.00;;;17.10;50.70;;;;;;5032898;28;20264;-60
2023/09/26 02:05:20;;;;;;;0.00;0.00;;;17.10;50.70;;;;;;5043716;28;20199;-62
2023/09/26 02:07:51;;;;;;;0.00;0.00;;;17.20;50.70;;;;;;5051023;28;20199;-62
2023/09/26 02:10:23;;;;;;;0.10;0.10;;;17.20;50.70;;;;;;5052805;28;20199;-62
2023/09/26 02:12:54;;;;;;;0.00;0.00;;;17.20;50.70;;;;;;5053010;28;20209;-64
2023/09/26 02:15:25;;;;;;;0.00;0.00;;;17.30;50.70;;;;;;5052688;28;20223;-62
2023/09/26 02:17:56;;;;;;;0.00;0.00;;;17.30;50.70;;;;;;5052743;28;20211;-60
2023/09/26 02:20:26;;;;;;;0.10;0.10;;;17.30;50.70;;;;;;5052418;28;20192;-58
2023/09/26 02:22:57;;;;;;;0.08;0.08;;;17.30;50.70;;;;;;5052200;28;20202;-62
2023/09/26 02:25:30;;;;;;;0.00;0.00;;;17.30;50.60;;;;;;5052686;28;20220;-61
2023/09/26 02:28:00;;;;;;;0.10;0.10;;;17.40;50.70;;;;;;5073772;22;20588;-46
2023/09/26 02:30:32;;;;;;;0.00;0.00;;;17.40;50.60;;;;;;5072101;28;20190;-47
2023/09/26 02:33:02;;;;;;;0.00;0.00;;;17.50;50.70;;;;;;5072208;28;20674;-46
2023/09/26 02:35:33;;;;;;;0.00;0.00;;;17.50;50.60;;;;;;5071915;28;20270;-45
2023/09/26 02:38:04;;;;;;;0.00;0.00;;;17.50;50.60;;;;;;5071527;28;20205;-46
2023/09/26 02:40:36;;;;;;;0.05;0.05;;;17.60;50.70;;;;;;5071811;28;20194;-46
2023/09/26 02:43:07;;;;;;;0.00;0.00;;;17.50;50.60;;;;;;5071964;28;20191;-45
2023/09/26 02:45:38;;;;;;;0.00;0.00;;;17.60;50.60;;;;;;5072424;28;20198;-46
2023/09/26 02:48:09;;;;;;;0.00;0.00;;;17.60;50.60;;;;;;5072122;28;20230;-45
2023/09/26 02:50:40;;;;;;;0.00;0.00;;;17.70;50.60;;;;;;5072144;28;20571;-46
2023/09/26 02:53:10;;;;;;;0.00;0.00;;;17.70;50.60;;;;;;5071629;28;20269;-47
2023/09/26 02:55:45;;;;;;;0.00;0.00;;;17.70;50.60;;;;;;5072333;28;20226;-45
2023/09/26 02:58:15;;;;;;;0.10;0.10;;;17.70;50.50;;;;;;5068436;28;20195;-46
2023/09/26 03:00:50;;;;;;;0.00;0.00;;;17.80;50.60;;;;;;5071733;28;20218;-45
2023/09/26 03:03:20;;;;;;;0.03;0.03;;;17.80;50.60;;;;;;5071675;28;20191;-46
2023/09/26 03:05:53;;;;;;;0.10;0.10;;;17.80;50.60;;;;;;5071869;28;20202;-45
2023/09/26 03:08:24;;;;;;;0.00;0.00;;;17.90;50.60;;;;;;5071479;28;20277;-46
2023/09/26 03:11:00;;;;;;;0.00;0.00;;;17.90;50.60;;;;;;5071058;28;20206;-46
2023/09/26 03:13:33;;;;;;;0.00;0.00;;;17.90;50.50;;;;;;5070500;28;20202;-45
2023/09/26 03:16:04;;;;;;;0.10;0.10;;;18.00;50.50;;;;;;5052539;28;20282;-45
2023/09/26 03:18:35;;;;;;;0.03;0.03;;;18.00;50.50;;;;;;5049343;28;20246;-45
2023/09/26 03:21:06;;;;;;;0.10;0.10;;;18.00;50.40;;;;;;5058361;28;20220;-44
2023/09/26 03:23:37;;;;;;;0.00;0.00;;;18.00;50.40;;;;;;5050639;28;20199;-45
2023/09/26 03:26:15;;;;;;;0.08;0.08;;;18.10;50.40;;;;;;5051407;28;20203;-45
2023/09/26 03:28:49;;;;;;;0.10;0.10;;;18.10;50.40;;;;;;5052467;28;20229;-45
2023/09/26 03:31:19;;;;;;;0.00;0.00;;;18.10;50.40;;;;;;5061437;28;20219;-45
2023/09/26 03:33:51;;;;;;;0.00;0.00;;;18.10;50.30;;;;;;5060854;28;20585;-44
2023/09/26 03:36:22;;;;;;;0.10;0.10;;;18.20;50.30;;;;;;5067101;28;20243;-45
2023/09/26 03:38:53;;;;;;;0.00;0.00;;;18.20;50.30;;;;;;5056725;28;20199;-46
2023/09/26 03:41:26;;;;;;;0.00;0.00;;;18.20;50.20;;;;;;5067404;28;20217;-44
2023/09/26 03:43:57;;;;;;;0.05;0.05;;;18.20;50.20;;;;;;5065505;28;20371;-45
2023/09/26 03:46:27;;;;;;;0.10;0.10;;;18.20;50.20;;;;;;5051306;28;20399;-45
2023/09/26 03:48:58;;;;;;;0.08;0.08;;;18.30;50.10;;;;;;5066093;28;20438;-45
2023/09/26 03:51:29;;;;;;;0.05;0.05;;;18.30;50.20;;;;;;5058255;28;20214;-44
2023/09/26 03:53:59;;;;;;;0.10;0.10;;;18.30;50.10;;;;;;5053931;28;20572;-44
2023/09/26 03:56:32;;;;;;;0.00;0.00;;;18.30;50.10;;;;;;5069498;28;20198;-45
2023/09/26 03:59:02;;;;;;;0.10;0.10;;;18.40;50.20;;;;;;5051094;28;20287;-45
2023/09/26 04:01:33;;;;;;;0.10;0.10;;;18.30;50.10;;;;;;5059427;28;20222;-45
2023/09/26 04:04:04;;;;;;;0.00;0.00;;;18.30;50.00;;;;;;5059161;28;20614;-44
2023/09/26 04:06:35;;;;;;;0.00;0.00;;;18.40;50.00;;;;;;5062594;28;20663;-45
2023/09/26 04:09:07;;;;;;;0.00;0.00;;;18.40;50.00;;;;;;5069103;28;20199;-46
2023/09/26 04:11:39;;;;;;;0.00;0.00;;;18.40;50.00;;;;;;5050695;28;20207;-47
2023/09/26 04:14:10;;;;;;;0.00;0.00;;;18.40;49.90;;;;;;5061039;28;20195;-46
2023/09/26 04:16:42;;;;;;;0.00;0.00;;;18.40;49.90;;;;;;5065050;28;20188;-45
2023/09/26 04:19:13;;;;;;;0.05;0.05;;;18.40;49.90;;;;;;5065933;28;20191;-44
2023/09/26 04:21:43;;;;;;;0.00;0.00;;;18.50;49.90;;;;;;5061271;28;20212;-45
2023/09/26 04:24:14;;;;;;;0.00;0.00;;;18.50;49.90;;;;;;5054809;28;20197;-45
2023/09/26 04:29:30;;;;;;;0.00;0.00;;;18.50;49.90;;;;;;5087840;28;20210;-58
2023/09/26 04:32:01;;;;;;;0.00;0.00;;;18.50;49.70;;;;;;5089578;28;20222;-58
2023/09/26 04:34:32;;;;;;;0.05;0.05;;;18.50;49.70;;;;;;5092567;28;20226;-60
2023/09/26 04:37:02;;;;;;;0.00;0.00;;;18.50;49.70;;;;;;5085230;28;20210;-61
2023/09/26 04:39:33;;;;;;;0.10;0.10;;;18.50;49.70;;;;;;5077169;28;20327;-60
2023/09/26 04:42:05;;;;;;;0.00;0.00;;;18.50;49.70;;;;;;5107082;28;20206;-59
2023/09/26 04:44:36;;;;;;;0.00;0.00;;;18.50;49.70;;;;;;5090500;28;20194;-62
2023/09/26 04:47:07;;;;;;;0.10;0.10;;;18.50;49.70;;;;;;5099283;28;20272;-61
2023/09/26 04:49:39;;;;;;;0.08;0.08;;;18.50;49.60;;;;;;5107529;28;20201;-62
2023/09/26 04:52:09;;;;;;;0.10;0.10;;;18.50;49.60;;;;;;5092056;28;20217;-59
2023/09/26 04:54:40;;;;;;;0.00;0.00;;;18.50;49.60;;;;;;5091960;28;20218;-61
2023/09/26 04:57:13;;;;;;;0.10;0.10;;;18.60;49.60;;;;;;5093865;28;20680;-61
2023/09/26 04:59:43;;;;;;;0.05;0.05;;;18.50;49.60;;;;;;5092083;28;20194;-62
2023/09/26 05:02:14;;;;;;;0.00;0.00;;;18.60;49.60;;;;;;5092434;28;20253;-61
2023/09/26 05:04:45;;;;;;;0.10;0.10;;;18.60;49.50;;;;;;5088703;28;20202;-60
2023/09/26 05:07:16;;;;;;;0.00;0.00;;;18.60;49.60;;;;;;5091568;28;20636;-60
2023/09/26 05:09:47;;;;;;;0.00;0.00;;;18.60;49.50;;;;;;5093604;28;20182;-62
2023/09/26 05:12:19;;;;;;;0.00;0.00;;;18.60;49.50;;;;;;5092167;28;20571;-59
2023/09/26 05:14:50;;;;;;;0.08;0.08;;;18.60;49.50;;;;;;5092037;28;20700;-61
2023/09/26 05:17:24;;;;;;;0.10;0.10;;;18.60;49.50;;;;;;5091930;28;20198;-59
2023/09/26 05:19:55;;;;;;;0.00;0.00;;;18.60;49.50;;;;;;5091446;28;20201;-58
2023/09/26 05:22:26;;;;;;;0.00;0.00;;;18.60;49.40;;;;;;5092934;28;20692;-62
2023/09/26 05:24:57;;;;;;;0.00;0.00;;;18.60;49.40;;;;;;5091904;28;20205;-62
2023/09/26 05:27:30;;;;;;;0.00;0.00;;;18.60;49.40;;;;;;5101192;22;20436;-45
2023/09/26 05:30:00;;;;;;;0.10;0.10;;;18.60;49.30;;;;;;5075780;28;20666;-48
2023/09/26 05:32:31;;;;;;;0.00;0.00;;;18.70;49.30;;;;;;5073535;28;20219;-46
2023/09/26 05:35:02;;;;;;;0.00;0.00;;;18.70;49.30;;;;;;5082573;28;20222;-46
2023/09/26 05:37:33;;;;;;;0.00;0.00;;;18.70;49.20;;;;;;5072683;28;20562;-45
2023/09/26 05:40:06;;;;;;;0.00;0.00;;;18.70;49.20;;;;;;5077114;28;20202;-46
2023/09/26 05:42:39;;;;;;;0.00;0.00;;;18.70;49.20;;;;;;5079786;28;20261;-45
2023/09/26 05:45:11;;;;;;;0.00;0.00;;;18.70;49.10;;;;;;5081619;28;20280;-45
2023/09/26 05:47:42;;;;;;;0.00;0.00;;;18.80;49.20;;;;;;5071698;28;20206;-45
2023/09/26 05:50:13;;;;;;;0.05;0.05;;;18.80;49.20;;;;;;5071584;28;20661;-45
2023/09/26 05:52:44;;;;;;;0.10;0.10;;;18.70;49.10;;;;;;5072906;28;20265;-45
2023/09/26 05:55:14;;;;;;;0.00;0.00;;;18.70;49.00;;;;;;5073125;28;20270;-47
2023/09/26 05:57:47;;;;;;;0.00;0.00;;;18.70;48.90;;;;;;5073177;28;20206;-44
2023/09/26 06:00:18;;;;;;;0.10;0.10;;;18.70;48.80;;;;;;5073471;28;20205;-44
2023/09/26 06:02:49;;;;;;;0.00;0.00;;;18.70;48.70;;;;;;5072971;28;20243;-45
2023/09/26 06:05:20;;;;;;;0.00;0.00;;;18.70;48.70;;;;;;5083211;28;20201;-45
2023/09/26 06:07:51;;;;;;;0.00;0.00;;;18.70;48.60;;;;;;5093479;28;20197;-46
2023/09/26 06:10:22;;;;;;;0.00;0.00;;;18.70;48.50;;;;;;5093465;28;20668;-45
2023/09/26 06:12:56;;;;;;;0.10;0.10;;;18.70;48.70;;;;;;5084635;28;20654;-45
2023/09/26 06:15:27;;;;;;;0.00;0.00;;;18.70;48.70;;;;;;5072243;28;20549;-46
2023/09/26 06:17:59;;;;;;;0.10;0.10;;;18.70;48.70;;;;;;5070829;28;20206;-46
2023/09/26 06:20:31;;;;;;;0.10;0.10;;;18.70;48.70;;;;;;5081686;28;20194;-45
2023/09/26 06:23:02;;;;;;;0.05;0.05;;;18.70;48.70;;;;;;5078381;28;20593;-45
2023/09/26 06:25:33;;;;;;;0.00;0.00;;;18.70;48.70;;;;;;5088220;28;20207;-45
2023/09/26 06:28:06;;;;;;;0.00;0.00;;;18.70;48.70;;;;;;5072098;28;20217;-45
2023/09/26 06:30:37;;;;;;;0.00;0.00;;;18.60;48.60;;;;;;5090740;28;20198;-46
2023/09/26 06:33:08;;;;;;;0.00;0.00;;;18.60;49.10;;;;;;5076990;28;20626;-46
2023/09/26 06:35:38;;;;;;;0.00;0.00;;;18.60;48.40;;;;;;5080383;28;20232;-46
2023/09/26 06:38:09;;;;;;;0.05;0.05;;;18.60;48.40;;;;;;5070707;28;20199;-46
2023/09/26 06:40:40;;;;;;;0.00;0.00;;;18.60;48.40;;;;;;5071952;28;20560;-46
2023/09/26 06:43:12;;;;;;;0.00;0.00;;;18.60;48.30;;;;;;5088901;28;20814;-44
2023/09/26 06:45:43;;;;;;;0.00;0.00;;;18.60;48.30;;;;;;5075891;28;20597;-46
2023/09/26 06:48:14;;;;;;;0.03;0.03;;;18.60;48.30;;;;;;5072167;28;20234;-45
2023/09/26 06:50:46;;;;;;;0.08;0.08;;;18.50;48.20;;;;;;5081909;28;20668;-45
2023/09/26 06:53:17;;;;;;;0.00;0.00;;;18.50;48.20;;;;;;5069764;28;20266;-45
2023/09/26 06:55:47;;;;;;;0.03;0.03;;;18.50;48.20;;;;;;5071536;28;20556;-45
2023/09/26 06:58:20;;;;;;;0.00;0.00;;;18.50;48.20;;;;;;5070056;28;20206;-45
2023/09/26 07:00:51;;;;;;;0.10;0.10;;;18.50;48.30;;;;;;5071710;28;20682;-45
2023/09/26 07:03:21;;;;;;;0.00;0.00;;;18.50;48.30;;;;;;5088831;28;20194;-45
2023/09/26 07:05:52;;;;;;;0.10;0.10;;;18.50;48.30;;;;;;5087051;28;20201;-46
2023/09/26 07:08:23;;;;;;;0.10;0.10;;;18.50;48.30;;;;;;5071904;28;20191;-45
2023/09/26 07:10:54;;;;;;;0.10;0.10;;;18.50;48.20;;;;;;5070617;28;20219;-45
2023/09/26 07:13:26;;;;;;;0.00;0.00;;;18.50;48.20;;;;;;5072220;28;20194;-46
2023/09/26 07:16:03;;;;;;;0.00;0.00;;;18.40;48.20;;;;;;5085401;28;20225;-46
2023/09/26 07:18:35;;;;;;;0.00;0.00;;;18.40;48.20;;;;;;5070100;28;20298;-45
2023/09/26 07:21:09;;;;;;;0.08;0.08;;;18.40;48.10;;;;;;5076803;28;20214;-46
2023/09/26 07:23:40;;;;;;;0.00;0.00;;;18.40;48.10;;;;;;5071748;28;20194;-45
2023/09/26 07:26:12;;;;;;;0.00;0.00;;;18.40;48.10;;;;;;5071539;28;20202;-43
2023/09/26 07:28:45;;;;;;;0.00;0.00;;;18.30;48.10;;;;;;5071411;28;20662;-45
2023/09/26 07:31:17;;;;;;;0.00;0.00;;;18.40;48.10;;;;;;5084537;28;20206;-46
2023/09/26 07:33:48;;;;;;;0.08;0.08;;;18.30;48.10;;;;;;5071562;28;20204;-45
2023/09/26 07:36:19;;;;;;;0.00;0.00;;;18.30;48.10;;;;;;5089519;28;20233;-45
2023/09/26 07:38:49;;;;;;;0.00;0.00;;;18.30;48.10;;;;;;5091550;28;20194;-47
2023/09/26 07:41:20;;;;;;;0.00;0.00;;;18.30;48.20;;;;;;5091534;28;20221;-45
2023/09/26 07:43:52;;;;;;;0.00;0.00;;;18.30;48.20;;;;;;5091780;28;20202;-46
2023/09/26 07:46:23;;;;;;;0.10;0.10;;;18.30;48.20;;;;;;5091488;28;20205;-45
2023/09/26 07:48:54;;;;;;;0.10;0.10;;;18.30;48.20;;;;;;5091380;28;20190;-45
2023/09/26 07:51:24;;;;;;;0.10;0.10;;;18.20;48.20;;;;;;5089061;28;20218;-45
2023/09/26 07:53:55;;;;;;;0.00;0.00;;;18.20;48.20;;;;;;5091614;28;20198;-45
2023/09/26 07:56:25;;;;;;;0.00;0.00;;;18.20;48.20;;;;;;5091663;28;20217;-45
2023/09/26 07:58:58;;;;;;;0.00;0.00;;;18.20;48.20;;;;;;5091712;28;20251;-45
2023/09/26 08:01:29;;;;;;;0.00;0.00;;;18.20;48.20;;;;;;5091560;28;20217;-44
2023/09/26 08:03:59;;;;;;;0.00;0.00;;;18.20;48.20;;;;;;5091459;28;20194;-44
2023/09/26 08:06:30;;;;;;;0.10;0.10;;;18.20;48.10;;;;;;5095400;28;20205;-45
2023/09/26 08:09:01;;;;;;;0.00;0.00;;;18.20;48.10;;;;;;5095325;28;20255;-44
2023/09/26 08:11:31;;;;;;;0.10;0.10;;;18.10;48.10;;;;;;5095513;28;20217;-44
2023/09/26 08:14:04;;;;;;;0.00;0.00;;;18.20;48.20;;;;;;5095519;28;20194;-45
2023/09/26 08:16:35;;;;;;;0.10;0.10;;;18.10;48.10;;;;;;5094992;28;20240;-45
2023/09/26 08:19:06;;;;;;;0.00;0.00;;;18.10;48.20;;;;;;5094653;28;20205;-45
2023/09/26 08:21:36;;;;;;;0.00;0.00;;;18.10;48.20;;;;;;5095293;28;20218;-45
2023/09/26 08:24:07;;;;;;;0.03;0.03;;;18.10;48.20;;;;;;5095436;28;20194;-44
2023/09/26 08:26:38;;;;;;;0.00;0.00;;;18.10;48.20;;;;;;5095285;28;20219;-49
2023/09/26 08:29:11;;;;;;;0.10;0.10;;;18.10;48.20;;;;;;5094962;28;20202;-44
2023/09/26 08:31:41;;;;;;;0.10;0.10;;;18.00;48.20;;;;;;5095721;28;20218;-45
2023/09/26 08:34:12;;;;;;;0.10;0.10;;;18.10;48.30;;;;;;5094401;28;20197;-45
2023/09/26 08:36:42;;;;;;;0.00;0.00;;;18.00;48.20;;;;;;5095047;28;20584;-46
2023/09/26 08:39:13;;;;;;;0.10;0.10;;;18.00;48.20;;;;;;5094988;28;20205;-45
2023/09/26 08:41:47;;;;;;;0.08;0.08;;;18.00;48.20;;;;;;5094922;28;20229;-44
2023/09/26 08:44:20;;;;;;;0.00;0.00;;;18.00;48.20;;;;;;5094750;28;20202;-44
2023/09/26 08:46:50;;;;;;;0.05;0.05;;;18.00;48.20;;;;;;5094806;28;20532;-45
2023/09/26 08:49:21;;;;;;;0.00;0.00;;;17.90;48.10;;;;;;5094300;28;20568;-45
2023/09/26 08:51:52;;;;;;;0.08;0.08;;;18.00;48.20;;;;;;5094650;28;20218;-45
2023/09/26 08:54:22;;;;;;;0.00;0.00;;;18.00;48.20;;;;;;5094643;28;20205;-45
2023/09/26 08:56:53;;;;;;;0.00;0.00;;;17.90;48.20;;;;;;5092225;28;20682;-46
2023/09/26 08:59:26;;;;;;;0.00;0.00;;;17.90;48.20;;;;;;5074393;28;20190;-46
2023/09/26 09:01:58;;;;;;;0.00;0.00;;;17.90;48.80;;;;;;5074160;28;20627;-47
2023/09/26 09:04:29;;;;;;;0.00;0.00;;;17.90;48.20;;;;;;5076400;28;20255;-45
2023/09/26 09:07:06;;;;;;;0.08;0.08;;;17.90;48.20;;;;;;5078067;28;20202;-45
2023/09/26 09:09:37;;;;;;;0.10;0.10;;;17.80;48.20;;;;;;5073447;28;20194;-45
2023/09/26 09:12:24;;;;;;;0.08;0.08;;;17.80;48.20;;;;;;5073717;28;20607;-45
2023/09/26 09:14:56;;;;;;;0.00;0.00;;;17.80;48.20;;;;;;5073931;28;20626;-46
2023/09/26 09:17:27;;;;;;;0.05;0.05;;;17.80;48.20;;;;;;5073496;28;20269;-45
2023/09/26 09:19:58;;;;;;;0.00;0.00;;;17.80;48.30;;;;;;5073434;28;20703;-45
2023/09/26 09:22:28;;;;;;;0.05;0.05;;;17.80;48.30;;;;;;5074607;28;20225;-44
2023/09/26 09:25:01;;;;;;;0.00;0.00;;;17.80;48.30;;;;;;5092163;28;20193;-44
2023/09/26 09:27:38;;;;;;;0.05;0.05;;;17.80;48.30;;;;;;5093887;28;20296;-45
2023/09/26 09:30:15;;;;;;;0.10;0.10;;;17.70;48.30;;;;;;5094358;28;20645;-51
2023/09/26 09:32:46;;;;;;;0.10;0.10;;;17.70;48.20;;;;;;5093893;28;20214;-44
2023/09/26 09:35:16;;;;;;;0.10;0.10;;;17.70;48.30;;;;;;5093690;28;20198;-44
2023/09/26 09:37:50;;;;;;;0.10;0.10;;;17.70;48.20;;;;;;5093581;28;20561;-44
2023/09/26 09:40:22;;;;;;;0.10;0.10;;;17.70;48.30;;;;;;5079061;28;20206;-44
2023/09/26 09:42:53;;;;;;;0.10;0.10;;;17.70;48.20;;;;;;5073131;28;20252;-46
2023/09/26 09:45:28;;;;;;;0.00;0.00;;;17.70;48.30;;;;;;5089423;28;20190;-45
2023/09/26 09:48:02;;;;;;;0.00;0.00;;;17.70;48.30;;;;;;5093416;28;20201;-46
2023/09/26 09:50:37;;;;;;;0.00;0.00;;;17.60;48.20;;;;;;5093574;28;20216;-44
2023/09/26 09:53:09;;;;;;;0.10;0.10;;;17.60;48.30;;;;;;5093397;28;20194;-46
2023/09/26 09:55:41;;;;;;;0.00;0.00;;;17.60;48.30;;;;;;5093504;28;20200;-46
2023/09/26 09:58:13;;;;;;;0.10;0.10;;;17.60;48.30;;;;;;5093452;28;20214;-44
2023/09/26 10:00:46;;;;;;;0.00;0.00;;;17.60;48.30;;;;;;5093330;28;20263;-46
2023/09/26 10:03:18;;;;;;;0.08;0.08;;;17.60;48.30;;;;;;5092840;28;20255;-45
2023/09/26 10:05:53;;;;;;;0.00;0.00;;;17.60;48.30;;;;;;5093236;28;20267;-45
2023/09/26 10:08:25;;;;;;;0.05;0.05;;;17.50;48.30;;;;;;5093003;28;20197;-45
2023/09/26 10:10:56;;;;;;;0.08;0.08;;;17.50;48.30;;;;;;5092978;28;20214;-46
2023/09/26 10:13:27;;;;;;;0.10;0.10;;;17.50;48.30;;;;;;5093186;28;20202;-46
2023/09/26 10:16:15;;;;;;;0.10;0.10;;;17.50;48.30;;;;;;5093158;28;20190;-46
2023/09/26 10:18:46;;;;;;;0.08;0.08;;;17.50;48.30;;;;;;5092252;28;20205;-44
2023/09/26 10:21:30;;;;;;;0.10;0.10;;;17.50;48.90;;;;;;5092989;28;20228;-46
2023/09/26 10:24:26;;;;;;;0.00;0.00;;;17.50;48.30;;;;;;5092966;28;20197;-46
2023/09/26 10:27:00;;;;;;;0.00;0.00;;;17.50;48.30;;;;;;5092814;28;20225;-45
2023/09/26 10:29:32;;;;;;;0.00;0.00;;;17.40;48.30;;;;;;5091833;28;20198;-48
2023/09/26 10:32:07;;;;;;;0.10;0.10;;;17.40;48.30;;;;;;5093223;28;20231;-45
2023/09/26 10:34:39;;;;;;;0.10;0.10;;;17.40;48.40;;;;;;5091810;28;20680;-45
2023/09/26 10:37:21;;;;;;;0.00;0.00;;;17.40;48.40;;;;;;5092539;28;20236;-45
2023/09/26 10:39:51;;;;;;;0.10;0.10;;;17.40;48.40;;;;;;5092505;28;20649;-46
2023/09/26 10:42:23;;;;;;;0.00;0.00;;;17.40;48.40;;;;;;5092318;28;20221;-45
2023/09/26 10:44:53;;;;;;;0.00;0.00;;;17.40;48.40;;;;;;5092320;28;20205;-46
2023/09/26 10:47:27;;;;;;;0.10;0.10;;;17.30;48.40;;;;;;5081695;28;20199;-45
2023/09/26 10:52:46;;;;;;;0.10;0.10;;;17.30;48.40;;;;;;5078797;28;20257;-46
2023/09/26 10:55:18;;;;;;;0.10;0.10;;;17.30;48.40;;;;;;5084902;28;20192;-46
2023/09/26 10:57:51;;;;;;;0.10;0.10;;;17.30;48.40;;;;;;5082388;28;20279;-45
2023/09/26 11:00:22;;;;;;;0.00;0.00;;;17.30;48.40;;;;;;5091325;28;20650;-46
2023/09/26 11:02:55;;;;;;;0.00;0.00;;;17.20;48.30;;;;;;5091276;28;20199;-46
2023/09/26 11:05:26;;;;;;;0.05;0.05;;;17.20;48.40;;;;;;5090970;28;20201;-45
2023/09/26 11:07:57;;;;;;;0.08;0.08;;;17.20;48.40;;;;;;5092350;28;20198;-46
2023/09/26 11:10:27;;;;;;;0.00;0.00;;;17.20;48.40;;;;;;5092250;28;20455;-45
2023/09/26 11:12:59;;;;;;;0.10;0.10;;;17.20;48.40;;;;;;5092318;28;20194;-45
2023/09/26 11:15:30;;;;;;;0.10;0.10;;;17.20;48.40;;;;;;5091924;28;20202;-45
2023/09/26 11:18:02;;;;;;;0.08;0.08;;;17.20;48.40;;;;;;5091001;28;20222;-45
2023/09/26 11:20:34;;;;;;;0.00;0.00;;;17.20;48.40;;;;;;5090354;28;20201;-45
2023/09/26 11:23:04;;;;;;;0.10;0.10;;;17.20;48.40;;;;;;5091226;28;20193;-44
2023/09/26 11:25:35;;;;;;;0.08;0.08;;;17.10;48.40;;;;;;5091200;28;20201;-44
2023/09/26 11:28:07;;;;;;;0.10;0.10;;;17.10;48.40;;;;;;5091524;28;20202;-45
2023/09/26 11:30:39;;;;;;;0.10;0.10;;;17.10;48.40;;;;;;5092046;28;20193;-45
2023/09/26 11:33:12;;;;;;;0.08;0.08;;;17.10;48.40;;;;;;5086630;28;20218;-45
2023/09/26 11:35:42;;;;;;;0.03;0.03;;;17.10;48.40;;;;;;5084489;28;20662;-45
2023/09/26 11:38:13;;;;;;;0.08;0.08;;;17.10;48.40;;;;;;5084550;28;20218;-45
2023/09/26 11:40:44;;;;;;;0.00;0.00;;;17.10;48.40;;;;;;5091584;28;20244;-44
2023/09/26 11:43:15;;;;;;;0.10;0.10;;;17.10;48.50;;;;;;5091762;28;20202;-46
2023/09/26 11:45:45;;;;;;;0.10;0.10;;;17.00;48.50;;;;;;5091927;28;20198;-47
2023/09/26 11:48:18;;;;;;;0.00;0.00;;;17.00;48.40;;;;;;5091696;28;20213;-46
2023/09/26 11:50:48;;;;;;;0.00;0.00;;;17.00;48.40;;;;;;5091811;28;20213;-45
2023/09/26 11:53:19;;;;;;;0.00;0.00;;;17.00;48.40;;;;;;5091216;28;20252;-45
2023/09/26 11:55:51;;;;;;;0.00;0.00;;;17.00;48.50;;;;;;5091174;28;20193;-44
2023/09/26 11:58:22;;;;;;;0.10;0.10;;;17.00;48.40;;;;;;5091607;28;20220;-44
2023/09/26 12:00:53;;;;;;;0.00;0.00;;;17.00;48.50;;;;;;5091559;28;20614;-44
2023/09/26 12:03:25;;;;;;;0.10;0.10;;;17.00;48.50;;;;;;5091148;28;20190;-45
2023/09/26 12:05:56;;;;;;;0.03;0.03;;;16.90;48.50;;;;;;5091179;28;20256;-45
2023/09/26 12:08:29;;;;;;;0.00;0.00;;;16.90;48.50;;;;;;5091819;28;20202;-44
2023/09/26 12:10:59;;;;;;;0.08;0.08;;;16.90;48.50;;;;;;5091797;28;20236;-44
2023/09/26 12:13:30;;;;;;;0.10;0.10;;;16.90;48.50;;;;;;5091516;28;20190;-45
2023/09/26 12:16:01;;;;;;;0.10;0.10;;;16.90;48.50;;;;;;5091433;28;20202;-44
2023/09/26 12:18:33;;;;;;;0.00;0.00;;;16.90;48.50;;;;;;5091636;28;20229;-45
2023/09/26 12:21:04;;;;;;;0.00;0.00;;;16.90;48.50;;;;;;5091495;28;20225;-44
2023/09/26 12:23:35;;;;;;;0.03;0.03;;;16.90;48.60;;;;;;5091105;28;20650;-45
2023/09/26 12:26:06;;;;;;;0.00;0.00;;;16.90;48.60;;;;;;5091740;28;20664;-45
2023/09/26 12:28:37;;;;;;;0.00;0.00;;;16.90;48.60;;;;;;5091347;28;20217;-44
2023/09/26 12:31:07;;;;;;;0.00;0.00;;;16.90;48.50;;;;;;5091935;28;20256;-44
2023/09/26 12:33:40;;;;;;;0.10;0.10;;;16.80;48.50;;;;;;5090916;28;20790;-45
2023/09/26 12:36:11;;;;;;;0.10;0.10;;;16.80;48.50;;;;;;5090969;28;20194;-44
2023/09/26 12:38:42;;;;;;;0.10;0.10;;;16.80;48.50;;;;;;5091092;28;20222;-45
2023/09/26 12:41:12;;;;;;;0.10;0.10;;;16.80;48.50;;;;;;5091031;28;20272;-44
2023/09/26 12:43:43;;;;;;;0.00;0.00;;;16.80;48.60;;;;;;5091195;28;20202;-43
2023/09/26 12:46:14;;;;;;;0.05;0.05;;;16.80;48.60;;;;;;5089170;28;20586;-45
2023/09/26 12:48:46;;;;;;;0.10;0.10;;;16.80;48.60;;;;;;5071149;28;20202;-44
2023/09/26 12:51:17;;;;;;;0.10;0.10;;;16.80;48.60;;;;;;5072007;28;20694;-44
2023/09/26 12:53:47;;;;;;;0.00;0.00;;;16.80;48.60;;;;;;5076245;28;20757;-44
2023/09/26 12:56:18;;;;;;;0.10;0.10;;;16.70;48.60;;;;;;5074189;28;20206;-45
2023/09/26 12:58:49;;;;;;;0.05;0.05;;;16.70;48.60;;;;;;5074157;28;20218;-45
2023/09/26 13:01:19;;;;;;;0.10;0.10;;;16.70;48.60;;;;;;5074344;28;20219;-44
2023/09/26 13:03:52;;;;;;;0.10;0.10;;;16.70;48.60;;;;;;5073939;28;20202;-45
2023/09/26 13:06:22;;;;;;;0.10;0.10;;;16.70;48.60;;;;;;5093235;28;20201;-45
2023/09/26 13:08:53;;;;;;;0.10;0.10;;;16.70;48.60;;;;;;5094421;28;20202;-45
2023/09/26 13:11:24;;;;;;;0.00;0.00;;;16.70;48.60;;;;;;5094304;28;20589;-44
2023/09/26 13:13:54;;;;;;;0.10;0.10;;;16.70;48.60;;;;;;5094545;28;20197;-46
2023/09/26 13:16:25;;;;;;;0.00;0.00;;;16.70;48.60;;;;;;5094218;28;20201;-44
2023/09/26 13:18:59;;;;;;;0.10;0.10;;;16.60;48.50;;;;;;5093857;28;20279;-45